createdAt,value
2018-04-19T00:00:47.790Z,17.50
2018-04-19T00:03:14.881Z,17.60
2018-04-19T00:05:41.109Z,17.60
2018-04-19T00:08:08.176Z,17.60
2018-04-19T00:10:34.490Z,17.50
2018-04-19T00:13:01.423Z,17.40
2018-04-19T00:15:27.620Z,17.40
2018-04-19T00:17:54.567Z,17.50
2018-04-19T00:20:21.524Z,17.40
2018-04-19T00:22:47.767Z,17.40
2018-04-19T00:25:14.086Z,17.40
2018-04-19T00:27:42.801Z,17.40
2018-04-19T00:30:09.077Z,17.50
2018-04-19T00:32:35.342Z,17.50
2018-04-19T00:35:01.560Z,17.50
2018-04-19T00:37:29.339Z,17.50
2018-04-19T00:39:55.532Z,17.40
2018-04-19T00:42:21.709Z,17.40
2018-04-19T00:44:47.945Z,17.30
2018-04-19T00:47:14.209Z,17.20
2018-04-19T00:49:40.405Z,17.20
2018-04-19T00:52:06.592Z,17.20
2018-04-19T00:54:34.569Z,17.10
2018-04-19T00:57:01.497Z,17.10
2018-04-19T00:59:28.553Z,17.00
2018-04-19T01:01:55.555Z,17.00
2018-04-19T01:04:22.847Z,17.00
2018-04-19T01:06:49.860Z,17.00
2018-04-19T01:09:16.125Z,17.00
2018-04-19T01:11:43.065Z,17.00
2018-04-19T01:14:09.912Z,17.00
2018-04-19T01:16:36.136Z,17.10
2018-04-19T01:19:02.376Z,17.00
2018-04-19T01:21:29.360Z,17.10
2018-04-19T01:23:55.595Z,17.10
2018-04-19T01:26:21.815Z,17.10
2018-04-19T01:28:48.066Z,17.10
2018-04-19T01:31:14.272Z,17.10
2018-04-19T01:33:40.456Z,17.10
2018-04-19T01:36:18.964Z,17.00
2018-04-19T01:38:45.238Z,17.00
2018-04-19T01:41:11.439Z,17.00
2018-04-19T01:43:38.403Z,16.90
2018-04-19T01:46:04.592Z,16.90
2018-04-19T01:48:30.849Z,16.90
2018-04-19T02:00:43.784Z,16.40
2018-04-19T02:03:10.001Z,16.40
2018-04-19T02:05:36.213Z,16.40
2018-04-19T02:08:03.204Z,16.30
2018-04-19T02:10:29.398Z,16.40
2018-04-19T02:12:56.267Z,16.40
2018-04-19T02:15:22.439Z,16.30
2018-04-19T02:17:49.356Z,16.40
2018-04-19T02:20:15.584Z,16.40
2018-04-19T02:22:41.819Z,16.40
2018-04-19T02:25:08.267Z,16.40
2018-04-19T02:27:34.509Z,16.40
2018-04-19T02:30:02.263Z,16.40
2018-04-19T02:32:28.476Z,16.30
2018-04-19T02:34:54.683Z,16.20
2018-04-19T02:37:20.892Z,16.20
2018-04-19T02:39:47.093Z,16.20
2018-04-19T02:42:14.735Z,16.20
2018-04-19T02:44:40.929Z,16.20
2018-04-19T02:47:07.175Z,16.20
2018-04-19T02:49:33.438Z,16.20
2018-04-19T02:52:01.369Z,16.30
2018-04-19T02:54:28.275Z,16.30
2018-04-19T02:56:54.523Z,16.30
2018-04-19T02:59:20.772Z,16.20
2018-04-19T03:01:48.785Z,16.30
2018-04-19T03:04:15.698Z,16.50
2018-04-19T03:06:42.083Z,16.50
2018-04-19T03:09:09.279Z,16.50
2018-04-19T03:11:35.581Z,16.40
2018-04-19T03:14:02.182Z,16.40
2018-04-19T03:16:29.060Z,16.40
2018-04-19T03:18:55.337Z,16.30
2018-04-19T03:21:21.762Z,16.30
2018-04-19T03:23:48.047Z,16.30
2018-04-19T03:26:14.310Z,16.30
2018-04-19T03:28:42.181Z,16.30
2018-04-19T03:31:08.976Z,16.30
2018-04-19T03:33:35.185Z,16.30
2018-04-19T03:36:02.836Z,16.30
2018-04-19T03:38:29.803Z,16.10
2018-04-19T03:40:57.838Z,16.10
2018-04-19T03:43:24.244Z,16.10
2018-04-19T03:45:50.525Z,16.10
2018-04-19T03:48:17.472Z,16.10
2018-04-19T03:50:50.666Z,16.20
2018-04-19T03:53:18.117Z,16.30
2018-04-19T03:55:45.265Z,16.10
2018-04-19T03:58:12.087Z,16.10
2018-04-19T04:00:38.349Z,16.00
2018-04-19T04:03:06.411Z,15.90
2018-04-19T04:05:33.387Z,15.80
2018-04-19T04:07:59.633Z,15.70
2018-04-19T04:10:29.701Z,15.70
2018-04-19T04:12:55.954Z,15.60
2018-04-19T04:15:22.917Z,15.70
2018-04-19T04:18:01.585Z,15.90
2018-04-19T04:20:40.271Z,16.00
2018-04-19T04:23:21.731Z,16.10
2018-04-19T04:25:49.888Z,16.00
2018-04-19T04:28:16.799Z,16.10
2018-04-19T04:30:43.027Z,16.10
2018-04-19T04:33:10.085Z,16.20
2018-04-19T04:35:36.730Z,16.20
2018-04-19T04:38:03.020Z,16.20
2018-04-19T04:40:29.370Z,16.20
2018-04-19T04:42:55.618Z,16.10
2018-04-19T04:45:22.564Z,16.20
2018-04-19T04:47:48.857Z,16.50
2018-04-19T04:50:15.764Z,16.30
2018-04-19T04:52:43.591Z,16.40
2018-04-19T04:55:09.902Z,16.40
2018-04-19T04:57:36.084Z,16.50
2018-04-19T05:00:03.133Z,16.50
2018-04-19T05:02:30.048Z,16.60
2018-04-19T05:04:56.325Z,16.70
2018-04-19T05:07:23.303Z,16.80
2018-04-19T05:09:49.861Z,16.90
2018-04-19T05:12:16.441Z,17.30
2018-04-19T05:14:43.244Z,17.10
2018-04-19T05:17:11.315Z,17.20
2018-04-19T05:19:37.591Z,17.00
2018-04-19T05:22:03.856Z,17.60
2018-04-19T05:24:31.835Z,17.50
2018-04-19T05:26:58.007Z,18.00
2018-04-19T05:29:25.007Z,17.60
2018-04-19T05:31:51.937Z,17.70
2018-04-19T05:34:18.990Z,17.70
2018-04-19T05:36:45.529Z,17.90
2018-04-19T05:39:11.751Z,18.00
2018-04-19T05:41:37.976Z,18.10
2018-04-19T05:44:04.193Z,17.90
2018-04-19T05:46:30.372Z,18.00
2018-04-19T05:48:56.606Z,18.10
2018-04-19T05:51:22.841Z,18.80
2018-04-19T05:53:49.049Z,18.50
2018-04-19T05:56:15.730Z,18.90
2018-04-19T05:58:42.702Z,19.00
2018-04-19T06:01:09.013Z,19.40
2018-04-19T06:03:35.635Z,19.70
2018-04-19T06:06:02.201Z,19.90
2018-04-19T06:08:28.453Z,20.80
2018-04-19T06:10:55.781Z,20.40
2018-04-19T06:13:22.726Z,20.60
2018-04-19T06:15:49.647Z,20.80
2018-04-19T06:18:16.464Z,21.30
2018-04-19T06:20:43.447Z,21.50
2018-04-19T06:23:10.426Z,21.80
2018-04-19T06:25:36.625Z,22.40
2018-04-19T06:28:04.363Z,22.40
2018-04-19T06:40:15.704Z,23.60
2018-04-19T06:42:42.010Z,23.90
2018-04-19T06:45:08.263Z,23.90
2018-04-19T06:47:34.512Z,24.10
2018-04-19T06:50:00.718Z,24.30
2018-04-19T06:52:26.931Z,25.00
2018-04-19T06:54:53.105Z,25.50
2018-04-19T06:57:19.301Z,25.40
2018-04-19T06:59:45.495Z,25.40
2018-04-19T07:02:11.656Z,25.60
2018-04-19T07:04:37.908Z,25.90
2018-04-19T07:07:05.597Z,26.10
2018-04-19T07:09:32.936Z,26.40
2018-04-19T07:12:00.378Z,26.60
2018-04-19T07:27:26.666Z,27.40
2018-04-19T07:29:52.887Z,27.60
2018-04-19T07:32:19.125Z,28.00
2018-04-19T07:34:45.351Z,28.00
2018-04-19T07:37:11.644Z,28.40
2018-04-19T07:39:39.040Z,28.50
2018-04-19T07:42:06.360Z,28.40
2018-04-19T07:44:33.300Z,28.40
2018-04-19T07:47:00.252Z,28.90
2018-04-19T07:49:27.876Z,29.30
2018-04-19T07:51:54.077Z,29.10
2018-04-19T07:54:20.288Z,29.80
2018-04-19T07:56:46.516Z,29.90
2018-04-19T07:59:13.135Z,30.50
2018-04-19T08:01:40.101Z,29.70
2018-04-19T08:04:06.774Z,29.80
2018-04-19T08:06:33.680Z,30.10
2018-04-19T08:09:00.011Z,30.30
2018-04-19T08:11:26.278Z,30.40
2018-04-19T08:13:53.533Z,30.20
2018-04-19T08:16:19.805Z,30.30
2018-04-19T08:18:46.735Z,30.20
2018-04-19T08:21:12.938Z,30.30
2018-04-19T08:23:39.139Z,30.30
2018-04-19T08:26:05.344Z,30.30
2018-04-19T08:28:32.394Z,30.00
2018-04-19T08:31:01.025Z,29.60
2018-04-19T08:33:28.110Z,29.00
2018-04-19T08:35:54.366Z,28.80
2018-04-19T08:38:20.569Z,28.60
2018-04-19T08:40:47.526Z,28.60
2018-04-19T08:43:14.457Z,28.70
2018-04-19T08:45:40.697Z,28.80
2018-04-19T08:48:07.703Z,29.20
2018-04-19T08:50:34.573Z,29.10
2018-04-19T08:53:01.599Z,29.40
2018-04-19T08:55:27.828Z,29.30
2018-04-19T08:57:54.034Z,29.30
2018-04-19T09:00:20.261Z,29.30
2018-04-19T09:02:46.527Z,29.40
2018-04-19T09:05:12.741Z,29.40
2018-04-19T09:07:39.412Z,29.40
2018-04-19T09:10:05.755Z,29.40
2018-04-19T09:12:32.799Z,29.60
2018-04-19T09:14:59.830Z,29.60
2018-04-19T09:17:26.063Z,29.70
2018-04-19T09:19:52.325Z,29.60
2018-04-19T09:22:18.544Z,29.70
2018-04-19T09:24:44.815Z,29.60
2018-04-19T09:27:11.103Z,29.60
2018-04-19T09:29:38.112Z,30.00
2018-04-19T09:32:04.420Z,30.10
2018-04-19T09:34:30.644Z,30.60
2018-04-19T09:36:56.865Z,30.70
2018-04-19T09:39:23.059Z,30.80
2018-04-19T09:41:50.040Z,31.30
2018-04-19T09:44:17.354Z,32.00
2018-04-19T09:46:44.306Z,32.00
2018-04-19T09:49:11.308Z,32.30
2018-04-19T09:51:37.889Z,32.50
2018-04-19T09:54:05.994Z,33.20
2018-04-19T09:56:32.041Z,33.60
2018-04-19T09:59:10.620Z,33.60
2018-04-19T10:01:43.651Z,33.70
2018-04-19T10:04:12.849Z,33.80
2018-04-19T10:06:40.625Z,34.70
2018-04-19T10:09:06.961Z,34.70
2018-04-19T10:11:33.258Z,35.00
2018-04-19T10:13:59.511Z,35.50
2018-04-19T10:16:26.686Z,36.40
2018-04-19T10:18:53.327Z,36.00
2018-04-19T10:21:19.567Z,36.60
2018-04-19T10:23:45.773Z,36.70
2018-04-19T10:26:12.002Z,37.20
2018-04-19T10:28:41.271Z,37.20
2018-04-19T10:31:07.507Z,37.10
2018-04-19T10:33:33.776Z,37.00
2018-04-19T10:36:00.033Z,36.70
2018-04-19T10:38:26.995Z,36.60
2018-04-19T10:40:53.223Z,36.20
2018-04-19T10:43:19.463Z,35.80
2018-04-19T10:45:46.020Z,35.40
2018-04-19T10:48:12.288Z,35.50
2018-04-19T10:50:40.690Z,35.70
2018-04-19T10:53:06.926Z,35.70
2018-04-19T10:55:33.174Z,35.90
2018-04-19T10:57:59.417Z,35.60
2018-04-19T11:00:25.753Z,35.40
2018-04-19T11:02:52.023Z,35.30
2018-04-19T11:05:19.010Z,35.60
2018-04-19T11:07:45.932Z,35.70
2018-04-19T11:10:12.236Z,35.70
2018-04-19T11:12:38.489Z,35.60
2018-04-19T11:15:05.248Z,35.60
2018-04-19T11:17:31.550Z,35.40
2018-04-19T11:19:58.564Z,35.40
2018-04-19T11:22:24.788Z,35.40
2018-04-19T11:24:51.049Z,35.60
2018-04-19T11:27:18.043Z,36.10
2018-04-19T11:29:44.275Z,36.10
2018-04-19T11:32:10.519Z,36.40
2018-04-19T11:34:37.486Z,36.30
2018-04-19T11:37:03.693Z,36.70
2018-04-19T11:39:29.987Z,36.50
2018-04-19T11:41:57.401Z,36.50
2018-04-19T11:54:08.877Z,36.70
2018-04-19T11:56:35.459Z,36.50
2018-04-19T11:59:02.457Z,36.50
2018-04-19T12:01:30.065Z,36.50
2018-04-19T12:03:56.316Z,36.90
2018-04-19T12:06:22.611Z,36.90
2018-04-19T12:08:48.838Z,36.90
2018-04-19T12:11:15.088Z,37.00
2018-04-19T12:13:41.407Z,37.00
2018-04-19T12:16:08.410Z,37.40
2018-04-19T12:21:03.379Z,37.70
2018-04-19T12:23:29.613Z,37.70
2018-04-19T12:25:57.673Z,37.70
2018-04-19T12:28:23.937Z,37.40
2018-04-19T12:30:50.209Z,37.30
2018-04-19T12:33:17.161Z,38.00
2018-04-19T12:35:43.967Z,38.40
2018-04-19T12:38:10.240Z,38.50
2018-04-19T12:40:37.060Z,39.10
2018-04-19T12:43:04.044Z,39.20
2018-04-19T12:45:30.620Z,39.20
2018-04-19T12:47:57.056Z,39.60
2018-04-19T12:50:23.307Z,40.50
2018-04-19T12:52:50.327Z,40.20
2018-04-19T12:55:20.881Z,40.40
2018-04-19T12:57:47.293Z,40.40
2018-04-19T13:00:13.509Z,40.60
2018-04-19T13:02:39.741Z,40.50
2018-04-19T13:05:06.771Z,40.80
2018-04-19T13:07:32.972Z,40.70
2018-04-19T13:09:59.239Z,40.60
2018-04-19T13:12:25.497Z,40.50
2018-04-19T13:14:51.807Z,40.00
2018-04-19T13:17:18.068Z,39.30
2018-04-19T13:19:45.053Z,38.50
2018-04-19T13:22:11.263Z,38.60
2018-04-19T13:24:37.562Z,38.90
2018-04-19T13:27:04.810Z,39.10
2018-04-19T13:29:31.007Z,39.10
2018-04-19T13:31:57.387Z,38.20
2018-04-19T13:34:23.769Z,37.80
2018-04-19T13:36:50.029Z,38.00
2018-04-19T13:39:16.339Z,38.20
2018-04-19T13:41:42.584Z,37.80
2018-04-19T13:53:55.553Z,37.20
2018-04-19T13:56:22.166Z,36.90
2018-04-19T13:58:48.369Z,36.90
2018-04-19T14:01:14.660Z,36.80
2018-04-19T14:03:40.900Z,36.60
2018-04-19T14:06:07.169Z,36.60
2018-04-19T14:08:33.385Z,36.40
2018-04-19T14:11:00.603Z,35.90
2018-04-19T14:13:26.847Z,35.40
2018-04-19T14:15:53.042Z,35.10
2018-04-19T14:18:20.098Z,34.00
2018-04-19T14:20:47.192Z,33.20
2018-04-19T14:23:14.206Z,32.70
2018-04-19T14:25:40.437Z,31.90
2018-04-19T14:28:06.779Z,31.30
2018-04-19T14:30:33.055Z,31.20
2018-04-19T14:32:59.937Z,31.00
2018-04-19T14:35:26.488Z,30.90
2018-04-19T14:37:52.722Z,30.50
2018-04-19T14:40:18.995Z,30.30
2018-04-19T14:42:46.218Z,29.90
2018-04-19T14:45:13.211Z,29.80
2018-04-19T14:47:39.459Z,29.70
2018-04-19T14:50:05.701Z,29.60
2018-04-19T14:52:31.913Z,29.80
2018-04-19T14:54:58.974Z,29.90
2018-04-19T14:57:25.187Z,29.40
2018-04-19T14:59:53.245Z,29.40
2018-04-19T15:02:19.494Z,29.70
2018-04-19T15:04:45.817Z,29.30
2018-04-19T15:07:13.393Z,29.10
2018-04-19T15:09:39.667Z,28.90
2018-04-19T15:12:20.799Z,28.80
2018-04-19T15:14:47.005Z,28.40
2018-04-19T15:17:13.201Z,28.40
2018-04-19T15:19:40.197Z,28.40
2018-04-19T15:22:06.490Z,28.40
2018-04-19T15:24:33.380Z,28.40
2018-04-19T15:27:00.319Z,28.00
2018-04-19T15:29:26.864Z,27.70
2018-04-19T15:31:53.100Z,27.70
2018-04-19T15:34:19.376Z,27.60
2018-04-19T15:36:45.772Z,27.60
2018-04-19T15:39:13.456Z,27.80
2018-04-19T15:41:40.577Z,27.80
2018-04-19T15:44:06.725Z,28.00
2018-04-19T15:46:34.501Z,27.70
2018-04-19T15:51:29.497Z,27.30
2018-04-19T15:53:59.166Z,28.00
2018-04-19T15:58:54.065Z,27.70
2018-04-19T16:03:49.120Z,27.60
2018-04-19T16:06:15.612Z,27.40
2018-04-19T16:08:41.825Z,28.00
2018-04-19T16:11:08.889Z,27.70
2018-04-19T16:13:35.976Z,27.60
2018-04-19T16:16:02.228Z,27.70
2018-04-19T16:18:28.440Z,27.20
2018-04-19T16:20:54.907Z,27.20
2018-04-19T16:23:23.409Z,27.60
2018-04-19T16:25:50.093Z,28.30
2018-04-19T16:28:17.757Z,27.90
2018-04-19T16:30:44.418Z,26.70
2018-04-19T16:33:10.602Z,27.40
2018-04-19T16:35:37.189Z,27.10
2018-04-19T16:38:03.825Z,26.90
2018-04-19T16:43:00.342Z,26.40
2018-04-19T16:45:26.538Z,27.00
2018-04-19T16:50:21.417Z,27.00
2018-04-19T16:52:48.042Z,27.10
2018-04-19T16:55:14.196Z,26.70
2018-04-19T16:57:41.224Z,27.10
2018-04-19T17:00:07.445Z,27.00
2018-04-19T17:02:34.536Z,26.70
2018-04-19T17:05:02.297Z,26.70
2018-04-19T17:07:29.233Z,26.70
2018-04-19T17:09:56.243Z,26.70
2018-04-19T17:12:22.442Z,26.50
2018-04-19T17:14:48.669Z,26.50
2018-04-19T17:17:16.042Z,26.40
2018-04-19T17:19:42.375Z,26.60
2018-04-19T17:24:36.510Z,27.00
2018-04-19T17:27:02.774Z,26.50
2018-04-19T17:29:29.791Z,26.10
2018-04-19T17:31:56.900Z,26.00
2018-04-19T17:34:23.751Z,26.10
2018-04-19T17:36:49.973Z,26.00
2018-04-19T17:39:16.196Z,26.00
2018-04-19T17:41:42.447Z,26.00
2018-04-19T17:44:08.689Z,26.10
2018-04-19T17:46:34.992Z,25.90
2018-04-19T17:58:51.316Z,25.90
2018-04-19T18:01:17.531Z,25.40
2018-04-19T18:03:43.760Z,25.40
2018-04-19T18:06:10.813Z,25.30
2018-04-19T18:08:37.129Z,25.30
2018-04-19T18:11:03.364Z,25.20
2018-04-19T18:13:29.558Z,25.20
2018-04-19T18:15:55.880Z,25.10
2018-04-19T18:18:22.143Z,25.00
2018-04-19T18:20:48.389Z,24.90
2018-04-19T18:23:15.366Z,24.80
2018-04-19T18:25:41.968Z,24.80
2018-04-19T18:28:08.950Z,24.60
2018-04-19T18:30:35.126Z,24.60
2018-04-19T18:33:01.351Z,24.60
2018-04-19T18:35:27.562Z,24.50
2018-04-19T18:37:53.788Z,24.60
2018-04-19T18:40:20.005Z,24.50
2018-04-19T18:42:46.313Z,24.40
2018-04-19T18:45:13.418Z,24.20
2018-04-19T18:47:39.649Z,24.20
2018-04-19T18:50:05.916Z,24.20
2018-04-19T18:52:32.900Z,24.00
2018-04-19T18:54:59.100Z,24.00
2018-04-19T18:57:26.061Z,23.80
2018-04-19T18:59:52.791Z,23.80
2018-04-19T19:02:19.013Z,23.70
2018-04-19T19:04:45.983Z,23.60
2018-04-19T19:07:12.245Z,23.60
2018-04-19T19:09:38.535Z,23.50
2018-04-19T19:12:04.794Z,23.50
2018-04-19T19:14:33.051Z,23.50
2018-04-19T19:16:59.354Z,23.40
2018-04-19T19:19:38.874Z,23.30
2018-04-19T19:22:05.558Z,23.30
2018-04-19T19:24:32.132Z,23.20
2018-04-19T19:39:58.431Z,23.20
2018-04-19T19:52:17.263Z,22.90
2018-04-19T19:54:43.478Z,22.40
2018-04-19T19:57:09.667Z,22.40
2018-04-19T19:59:36.651Z,22.20
2018-04-19T20:02:03.757Z,22.20
2018-04-19T20:04:30.744Z,22.20
2018-04-19T20:06:57.025Z,22.20
2018-04-19T20:09:23.229Z,22.10
2018-04-19T20:11:49.499Z,22.10
2018-04-19T20:14:16.464Z,21.90
2018-04-19T20:16:42.739Z,22.00
2018-04-19T20:19:09.091Z,22.00
2018-04-19T20:21:36.212Z,21.80
2018-04-19T20:24:03.297Z,21.70
2018-04-19T20:26:30.289Z,21.60
2018-04-19T20:28:56.862Z,21.60
2018-04-19T20:31:23.112Z,21.50
2018-04-19T20:33:50.204Z,21.50
2018-04-19T20:36:16.407Z,21.50
2018-04-19T20:38:42.655Z,21.60
2018-04-19T20:41:08.889Z,21.50
2018-04-19T20:43:35.127Z,21.50
2018-04-19T20:46:01.357Z,21.50
2018-04-19T20:48:27.594Z,21.60
2018-04-19T20:50:53.825Z,21.50
2018-04-19T20:53:21.194Z,21.50
2018-04-19T20:55:47.412Z,21.60
2018-04-19T20:58:13.663Z,21.30
2018-04-19T21:00:39.849Z,21.30
2018-04-19T21:03:06.084Z,21.20
2018-04-19T21:05:32.340Z,21.20
2018-04-19T21:07:58.578Z,21.20
2018-04-19T21:10:24.823Z,21.10
2018-04-19T21:12:51.120Z,21.00
2018-04-19T21:15:17.354Z,21.00
2018-04-19T21:17:43.565Z,21.00
2018-04-19T21:20:09.745Z,21.00
2018-04-19T21:22:36.696Z,21.00
2018-04-19T21:25:03.744Z,21.00
2018-04-19T21:27:30.748Z,21.00
2018-04-19T21:29:57.758Z,20.90
2018-04-19T21:32:24.045Z,20.80
2018-04-19T21:34:50.270Z,20.80
2018-04-19T21:37:16.465Z,20.80
2018-04-19T21:39:43.832Z,20.70
2018-04-19T21:42:10.085Z,20.60
2018-04-19T21:44:36.325Z,20.70
2018-04-19T21:47:02.583Z,20.80
2018-04-19T21:49:29.576Z,20.50
2018-04-19T21:51:56.563Z,20.50
2018-04-19T21:54:23.537Z,20.30
2018-04-19T21:56:49.701Z,20.20
2018-04-19T21:59:15.869Z,20.20
2018-04-19T22:01:42.856Z,20.30
2018-04-19T22:04:09.454Z,20.30
2018-04-19T22:06:36.395Z,20.20
2018-04-19T22:09:03.381Z,20.30
2018-04-19T22:11:29.573Z,20.20
2018-04-19T22:13:56.550Z,20.30
2018-04-19T22:16:22.741Z,20.30
2018-04-19T22:18:49.687Z,20.40
2018-04-19T22:21:15.913Z,20.30
2018-04-19T22:23:42.890Z,20.10
2018-04-19T22:26:10.092Z,20.10
2018-04-19T22:28:36.318Z,20.10
2018-04-19T22:31:02.496Z,20.10
2018-04-19T22:33:29.592Z,20.20
2018-04-19T22:35:55.803Z,20.20
2018-04-19T22:38:22.000Z,20.10
2018-04-19T22:40:48.250Z,20.10
2018-04-19T22:43:14.510Z,20.00
2018-04-19T22:45:41.732Z,20.00
2018-04-19T22:48:07.941Z,19.90
2018-04-19T22:50:34.189Z,20.00
2018-04-19T22:53:01.269Z,20.00
2018-04-19T22:55:27.479Z,19.80
2018-04-19T22:57:53.684Z,19.80
2018-04-19T23:00:19.886Z,19.90
2018-04-19T23:02:46.883Z,19.90
2018-04-19T23:05:13.097Z,19.80
2018-04-19T23:07:40.415Z,19.80
2018-04-19T23:10:07.356Z,19.60
2018-04-19T23:12:33.783Z,19.60
2018-04-19T23:14:59.958Z,19.60
2018-04-19T23:17:26.162Z,19.20
2018-04-19T23:19:53.129Z,19.30
2018-04-19T23:22:31.562Z,19.30
2018-04-19T23:24:57.763Z,19.30
2018-04-19T23:27:24.345Z,19.30
2018-04-19T23:29:50.531Z,19.40
2018-04-19T23:32:16.766Z,19.50
2018-04-19T23:34:43.837Z,19.50
2018-04-19T23:37:10.058Z,19.70
2018-04-19T23:39:36.297Z,19.50
2018-04-19T23:42:02.502Z,19.50
2018-04-19T23:44:28.684Z,19.30
2018-04-19T23:46:54.870Z,19.20
2018-04-19T23:49:21.093Z,19.10
2018-04-19T23:51:47.303Z,19.20
2018-04-19T23:54:14.070Z,19.10
2018-04-19T23:56:40.685Z,19.10
2018-04-19T23:59:07.616Z,19.20
